DGAA/ACC METAR and TAF weather

Enter ICAO airport designator
Station Type Date Time Source
DGAA METAR 2019/02/23 23:00 UTC NOAA

DGAA 232300Z 21013KT 9999 SCT015 29/26 Q1010 NOSIG


Station Type Date Time Source
DGAA Decoded METAR 2019/02/23 23:00 UTC NOAA

Accra, Ghana (DGAA) 05-36N 000-10W 69M
Feb 23, 2019 - 06:00 PM EST / 2019.02.23 2300 UTC
Wind: from the SSW (210 degrees) at 15 MPH (13 KT):0
Visibility: greater than 7 mile(s):0
Sky conditions: partly cloudy
Temperature: 84 F (29 C)
Dew Point: 78 F (26 C)
Relative Humidity: 83%
Pressure (altimeter): 29.83 in. Hg (1010 hPa)
ob: DGAA 232300Z 21013KT 9999 SCT015 29/26 Q1010 NOSIG
cycle: 23

Station Type Date Time Source
DGAA TAF 2019/02/23 18:21 UTC NOAA

TAF DGAA 231700Z 2318/2424 21012KT 9999 SCT021 PROB30
TEMPO 2318/2321 14005G18KT 5000 TSRA BKN010 SCT028CB
BECMG 2405/2407 27008KT 5000 BR BKN011
FM241200 19015KT 9999 FEW023


Example: see airport list